createdAt,value
2019-02-23T00:01:15.673Z,99.90
2019-02-23T00:03:45.517Z,99.90
2019-02-23T00:06:14.617Z,99.90
2019-02-23T00:08:43.656Z,99.90
2019-02-23T00:11:15.885Z,99.90
2019-02-23T00:13:48.978Z,99.90
2019-02-23T00:16:18.673Z,99.90
2019-02-23T00:18:50.904Z,99.90
2019-02-23T00:21:20.244Z,99.90
2019-02-23T00:23:49.929Z,99.90
2019-02-23T00:26:18.988Z,99.90
2019-02-23T00:28:48.605Z,99.90
2019-02-23T00:31:17.980Z,99.90
2019-02-23T00:33:47.068Z,99.90
2019-02-23T00:36:16.741Z,99.90
2019-02-23T00:38:47.524Z,99.90
2019-02-23T00:41:20.332Z,99.90
2019-02-23T00:43:49.420Z,99.90
2019-02-23T00:46:18.531Z,99.90
2019-02-23T00:48:47.912Z,99.90
2019-02-23T00:51:17.111Z,99.90
2019-02-23T00:53:46.208Z,99.90
2019-02-23T00:56:15.637Z,99.90
2019-02-23T00:58:44.873Z,99.90
2019-02-23T01:01:14.271Z,99.90
2019-02-23T01:03:43.992Z,99.90
2019-02-23T01:06:13.148Z,99.90
2019-02-23T01:08:42.251Z,99.90
2019-02-23T01:11:11.496Z,99.90
2019-02-23T01:13:40.636Z,99.90
2019-02-23T01:16:11.126Z,99.90
2019-02-23T01:18:40.756Z,99.90
2019-02-23T01:21:09.888Z,99.90
2019-02-23T01:23:39.264Z,99.90
2019-02-23T01:26:08.628Z,99.90
2019-02-23T01:28:37.731Z,99.90
2019-02-23T01:31:07.092Z,99.90
2019-02-23T01:36:10.916Z,99.90
2019-02-23T01:38:40.768Z,99.90
2019-02-23T01:41:11.412Z,99.90
2019-02-23T01:43:40.560Z,99.90
2019-02-23T01:46:09.776Z,99.90
2019-02-23T01:48:39.180Z,99.90
2019-02-23T01:51:09.414Z,99.90
2019-02-23T01:53:38.594Z,99.90
2019-02-23T01:56:08.064Z,99.90
2019-02-23T01:58:37.170Z,99.90
2019-02-23T02:01:06.794Z,99.90
2019-02-23T02:03:35.961Z,99.90
2019-02-23T02:06:05.036Z,99.90
2019-02-23T02:08:35.060Z,99.90
2019-02-23T02:11:04.216Z,99.90
2019-02-23T02:13:33.312Z,99.90
2019-02-23T02:16:02.424Z,99.90
2019-02-23T02:18:32.049Z,99.90
2019-02-23T02:21:01.246Z,99.90
2019-02-23T02:23:30.443Z,99.90
2019-02-23T02:25:59.608Z,99.90
2019-02-23T02:28:28.852Z,99.90
2019-02-23T02:30:58.269Z,99.90
2019-02-23T02:33:27.350Z,99.90
2019-02-23T02:35:56.529Z,99.90
2019-02-23T02:38:42.529Z,99.90
2019-02-23T02:41:12.836Z,99.90
2019-02-23T02:43:42.189Z,99.90
2019-02-23T02:46:11.347Z,99.90
2019-02-23T02:48:41.088Z,99.90
2019-02-23T02:51:10.192Z,99.90
2019-02-23T02:53:39.532Z,99.90
2019-02-23T02:56:09.252Z,99.90
2019-02-23T02:58:38.924Z,99.90
2019-02-23T03:01:08.124Z,99.90
2019-02-23T03:03:37.967Z,99.90
2019-02-23T03:06:08.058Z,99.90
2019-02-23T03:08:37.146Z,99.90
2019-02-23T03:11:06.494Z,99.90
2019-02-23T03:13:35.841Z,99.90
2019-02-23T03:16:04.963Z,99.90
2019-02-23T03:18:34.360Z,99.90
2019-02-23T03:21:03.436Z,99.90
2019-02-23T03:23:32.856Z,99.90
2019-02-23T03:26:02.103Z,99.90
2019-02-23T03:28:31.558Z,99.90
2019-02-23T03:31:02.663Z,99.90
2019-02-23T03:33:31.702Z,99.90
2019-02-23T03:36:02.881Z,99.90
2019-02-23T03:38:31.939Z,99.90
2019-02-23T03:41:01.041Z,99.90
2019-02-23T03:43:30.445Z,99.90
2019-02-23T03:46:31.193Z,99.90
2019-02-23T03:49:00.418Z,99.90
2019-02-23T03:51:29.469Z,99.90
2019-02-23T03:53:59.975Z,99.90
2019-02-23T03:56:29.622Z,99.90
2019-02-23T03:58:58.794Z,99.90
2019-02-23T04:01:27.880Z,99.90
2019-02-23T04:03:57.053Z,99.90
2019-02-23T04:06:26.850Z,99.90
2019-02-23T04:08:56.251Z,99.90
2019-02-23T04:11:25.536Z,99.90
2019-02-23T04:13:54.604Z,99.90
2019-02-23T04:16:23.692Z,99.90
2019-02-23T04:18:54.983Z,99.90
2019-02-23T04:21:24.910Z,99.90
2019-02-23T04:23:55.313Z,99.90
2019-02-23T04:26:24.646Z,99.90
2019-02-23T04:28:53.797Z,99.90
2019-02-23T04:31:22.909Z,99.90
2019-02-23T04:33:52.037Z,99.90
2019-02-23T04:36:21.404Z,99.90
2019-02-23T04:38:50.466Z,99.90
2019-02-23T04:41:19.617Z,99.90
2019-02-23T04:43:49.796Z,99.90
2019-02-23T04:46:19.191Z,99.90
2019-02-23T04:48:50.029Z,99.90
2019-02-23T04:51:19.276Z,99.90
2019-02-23T04:53:48.493Z,99.90
2019-02-23T04:56:18.311Z,99.90
2019-02-23T04:58:47.410Z,99.90
2019-02-23T05:01:17.065Z,99.90
2019-02-23T05:03:46.457Z,99.90
2019-02-23T05:06:34.580Z,99.90
2019-02-23T05:09:04.423Z,99.90
2019-02-23T05:11:33.548Z,99.90
2019-02-23T05:14:02.858Z,99.90
2019-02-23T05:16:32.000Z,99.90
2019-02-23T05:19:01.337Z,99.90
2019-02-23T05:21:30.496Z,99.90
2019-02-23T05:24:15.484Z,99.90
2019-02-23T05:26:44.604Z,99.90
2019-02-23T05:29:14.102Z,99.90
2019-02-23T05:31:44.150Z,99.90
2019-02-23T05:34:14.491Z,99.90
2019-02-23T05:36:47.702Z,99.90
2019-02-23T05:39:17.830Z,99.90
2019-02-23T05:41:47.229Z,99.90
2019-02-23T05:44:16.399Z,99.90
2019-02-23T05:46:45.745Z,99.90
2019-02-23T05:49:14.864Z,99.90
2019-02-23T05:51:43.959Z,99.90
2019-02-23T05:54:13.288Z,99.90
2019-02-23T05:56:43.339Z,99.90
2019-02-23T05:59:12.537Z,99.90
2019-02-23T06:01:42.230Z,99.90
2019-02-23T06:04:11.352Z,99.90
2019-02-23T06:06:40.460Z,99.90
2019-02-23T06:09:09.843Z,99.90
2019-02-23T06:11:38.917Z,99.90
2019-02-23T06:14:07.980Z,99.90
2019-02-23T06:16:37.624Z,99.90
2019-02-23T06:19:07.039Z,99.90
2019-02-23T06:21:36.543Z,99.90
2019-02-23T06:24:05.790Z,99.90
2019-02-23T06:26:34.883Z,99.90
2019-02-23T06:29:04.348Z,99.90
2019-02-23T06:31:33.624Z,99.90
2019-02-23T06:34:14.983Z,99.90
2019-02-23T06:36:33.908Z,99.90
2019-02-23T06:39:03.012Z,99.90
2019-02-23T06:41:32.373Z,99.90
2019-02-23T06:44:02.304Z,99.90
2019-02-23T06:46:31.448Z,99.90
2019-02-23T06:49:00.648Z,99.90
2019-02-23T06:51:30.860Z,99.90
2019-02-23T06:54:00.276Z,99.90
2019-02-23T06:56:29.357Z,99.90
2019-02-23T06:59:03.128Z,99.90
2019-02-23T07:01:32.191Z,99.90
2019-02-23T07:04:01.302Z,99.90
2019-02-23T07:06:31.009Z,99.90
2019-02-23T07:09:00.575Z,99.90
2019-02-23T07:11:29.780Z,99.90
2019-02-23T07:13:58.862Z,99.90
2019-02-23T07:16:28.194Z,99.90
2019-02-23T07:18:57.323Z,99.90
2019-02-23T07:21:27.394Z,99.90
2019-02-23T07:23:58.160Z,99.90
2019-02-23T07:26:28.033Z,99.90
2019-02-23T07:28:57.156Z,99.90
2019-02-23T07:31:26.569Z,99.90
2019-02-23T07:33:55.932Z,99.90
2019-02-23T07:36:26.052Z,99.90
2019-02-23T07:38:55.424Z,99.90
2019-02-23T07:41:24.592Z,99.90
2019-02-23T07:43:53.780Z,99.90
2019-02-23T07:46:23.256Z,99.90
2019-02-23T07:48:52.542Z,99.90
2019-02-23T07:51:21.778Z,99.90
2019-02-23T07:53:50.914Z,99.90
2019-02-23T07:56:20.317Z,99.90
2019-02-23T07:58:50.308Z,99.90
2019-02-23T08:01:19.407Z,99.90
2019-02-23T08:03:48.482Z,99.90
2019-02-23T08:06:17.844Z,99.90
2019-02-23T08:08:46.932Z,99.90
2019-02-23T08:11:16.342Z,99.90
2019-02-23T08:13:45.804Z,99.90
2019-02-23T08:16:15.228Z,99.90
2019-02-23T08:18:45.418Z,99.90
2019-02-23T08:21:14.918Z,99.90
2019-02-23T08:23:44.110Z,99.90
2019-02-23T08:26:13.571Z,99.90
2019-02-23T08:28:43.214Z,99.90
2019-02-23T08:31:13.456Z,99.90
2019-02-23T08:33:42.939Z,99.90
2019-02-23T08:36:12.592Z,99.90
2019-02-23T08:38:41.670Z,99.90
2019-02-23T08:41:10.760Z,99.90
2019-02-23T08:43:40.373Z,99.90
2019-02-23T08:46:09.476Z,99.90
2019-02-23T08:48:38.967Z,99.90
2019-02-23T08:51:11.620Z,99.90
2019-02-23T08:53:40.602Z,99.90
2019-02-23T08:56:09.964Z,99.90
2019-02-23T08:58:39.234Z,99.90
2019-02-23T09:01:08.573Z,99.90
2019-02-23T09:03:38.054Z,99.90
2019-02-23T09:06:10.647Z,99.90
2019-02-23T09:08:40.026Z,99.90
2019-02-23T09:11:09.492Z,99.90
2019-02-23T09:13:38.500Z,99.90
2019-02-23T09:16:07.714Z,99.90
2019-02-23T09:18:41.244Z,99.90
2019-02-23T09:21:10.666Z,99.90
2019-02-23T09:23:40.158Z,99.90
2019-02-23T09:26:09.402Z,99.90
2019-02-23T09:28:38.492Z,99.90
2019-02-23T09:31:07.632Z,99.90
2019-02-23T09:33:37.101Z,99.90
2019-02-23T09:36:06.228Z,99.90
2019-02-23T09:38:35.525Z,99.90
2019-02-23T09:41:04.579Z,99.90
2019-02-23T09:43:33.651Z,99.90
2019-02-23T09:46:02.749Z,99.90
2019-02-23T09:48:31.898Z,99.90
2019-02-23T09:51:01.364Z,99.90
2019-02-23T09:53:30.663Z,99.90
2019-02-23T09:56:00.151Z,99.90
2019-02-23T09:58:31.192Z,99.90
2019-02-23T10:00:59.973Z,99.90
2019-02-23T10:03:29.644Z,99.90
2019-02-23T10:05:58.710Z,99.90
2019-02-23T10:08:28.010Z,99.90
2019-02-23T10:10:57.736Z,99.90
2019-02-23T10:13:26.989Z,99.90
2019-02-23T10:15:56.861Z,99.90
2019-02-23T10:18:25.904Z,99.90
2019-02-23T10:20:55.013Z,99.90
2019-02-23T10:23:24.183Z,99.90
2019-02-23T10:25:53.290Z,99.90
2019-02-23T10:28:22.646Z,99.90
2019-02-23T10:30:52.688Z,99.90
2019-02-23T10:33:22.208Z,99.90
2019-02-23T10:35:51.816Z,99.90
2019-02-23T10:38:20.816Z,99.90
2019-02-23T10:40:50.009Z,99.90
2019-02-23T10:43:19.124Z,99.90
2019-02-23T10:45:49.496Z,99.90
2019-02-23T10:48:33.977Z,99.90
2019-02-23T10:51:03.581Z,99.90
2019-02-23T10:53:33.202Z,99.90
2019-02-23T10:56:18.115Z,99.90
2019-02-23T10:58:47.519Z,99.90
2019-02-23T11:01:16.968Z,99.90
2019-02-23T11:03:46.258Z,99.90
2019-02-23T11:06:15.364Z,99.90
2019-02-23T11:08:44.897Z,99.90
2019-02-23T11:11:14.087Z,99.90
2019-02-23T11:13:43.582Z,99.90
2019-02-23T11:16:14.448Z,99.90
2019-02-23T11:18:43.785Z,99.90
2019-02-23T11:21:13.371Z,99.90
2019-02-23T11:23:44.487Z,99.90
2019-02-23T11:26:13.946Z,99.90
2019-02-23T11:28:43.511Z,99.90
2019-02-23T11:31:12.881Z,99.90
2019-02-23T11:33:57.740Z,99.90
2019-02-23T11:36:27.181Z,99.90
2019-02-23T11:38:56.456Z,99.90
2019-02-23T11:41:26.076Z,99.90
2019-02-23T11:43:56.289Z,99.90
2019-02-23T11:46:25.700Z,99.90
2019-02-23T11:48:54.791Z,99.90
2019-02-23T11:52:02.381Z,99.90
2019-02-23T11:55:12.727Z,99.90
2019-02-23T11:58:09.472Z,99.90
2019-02-23T12:01:00.590Z,99.90
2019-02-23T12:04:08.329Z,99.90
2019-02-23T12:06:39.749Z,99.90
2019-02-23T12:09:09.314Z,99.90
2019-02-23T12:11:38.660Z,99.90
2019-02-23T12:14:10.896Z,99.90
2019-02-23T12:16:40.294Z,99.90
2019-02-23T12:19:10.656Z,99.90
2019-02-23T12:21:39.753Z,99.90
2019-02-23T12:24:08.996Z,99.90
2019-02-23T12:26:38.197Z,99.90
2019-02-23T12:29:07.600Z,99.90
2019-02-23T12:31:37.045Z,99.80
2019-02-23T12:34:06.522Z,99.30
2019-02-23T12:36:35.916Z,99.00
2019-02-23T12:39:05.697Z,97.80
2019-02-23T12:41:34.753Z,97.10
2019-02-23T12:44:03.916Z,94.10
2019-02-23T12:46:33.156Z,95.80
2019-02-23T12:49:02.492Z,92.10
2019-02-23T12:51:31.498Z,93.10
2019-02-23T12:54:00.629Z,92.30
2019-02-23T12:56:29.784Z,92.50
2019-02-23T12:58:58.972Z,90.60
2019-02-23T13:01:28.196Z,92.40
2019-02-23T13:03:57.533Z,91.20
2019-02-23T13:06:26.960Z,91.90
2019-02-23T13:09:35.894Z,90.60
2019-02-23T13:12:17.648Z,81.10
2019-02-23T13:15:09.309Z,84.50
2019-02-23T13:18:18.027Z,83.20
2019-02-23T13:21:33.668Z,85.10
2019-02-23T13:24:51.676Z,85.40
2019-02-23T13:27:55.454Z,80.30
2019-02-23T13:31:08.498Z,84.20
2019-02-23T13:34:18.822Z,84.10
2019-02-23T13:37:26.986Z,80.90
2019-02-23T13:40:33.193Z,83.00
2019-02-23T13:43:58.341Z,76.70
2019-02-23T13:47:15.352Z,73.00
2019-02-23T13:50:37.279Z,74.10
2019-02-23T13:53:33.227Z,78.60
2019-02-23T13:56:39.546Z,76.90
2019-02-23T13:59:46.171Z,74.70
2019-02-23T14:02:55.735Z,72.90
2019-02-23T14:06:04.430Z,75.20
2019-02-23T14:09:21.025Z,75.90
2019-02-23T14:12:23.632Z,72.30
2019-02-23T14:15:34.659Z,74.40
2019-02-23T14:18:50.652Z,71.60
2019-02-23T14:21:53.917Z,73.20
2019-02-23T14:24:59.948Z,72.10
2019-02-23T14:28:07.444Z,74.90
2019-02-23T14:31:03.468Z,74.20
2019-02-23T14:34:21.622Z,74.60
2019-02-23T14:37:10.623Z,74.30
2019-02-23T14:40:26.971Z,73.00
2019-02-23T14:43:30.073Z,73.40
2019-02-23T14:46:54.931Z,72.40
2019-02-23T14:49:51.609Z,72.60
2019-02-23T14:53:02.120Z,71.80
2019-02-23T14:56:00.965Z,72.70
2019-02-23T14:59:08.569Z,71.80
2019-02-23T15:02:07.525Z,72.10
2019-02-23T15:05:13.527Z,73.00
2019-02-23T15:08:13.136Z,70.20
2019-02-23T15:11:24.453Z,70.40
2019-02-23T15:14:49.108Z,76.40
2019-02-23T15:18:01.048Z,73.00
2019-02-23T15:21:01.664Z,72.30
2019-02-23T15:24:07.644Z,74.60
2019-02-23T15:27:14.008Z,73.30
2019-02-23T15:30:14.394Z,75.00
2019-02-23T15:33:29.279Z,74.30
2019-02-23T15:37:00.269Z,74.80
2019-02-23T15:40:01.027Z,74.60
2019-02-23T15:42:41.823Z,75.00
2019-02-23T15:45:45.923Z,74.90
2019-02-23T15:48:42.619Z,74.80
2019-02-23T15:51:12.108Z,74.60
2019-02-23T15:53:43.031Z,75.40
2019-02-23T15:56:12.332Z,75.50
2019-02-23T15:58:43.188Z,76.30
2019-02-23T16:01:12.542Z,74.60
2019-02-23T16:03:47.023Z,75.30
2019-02-23T16:06:17.044Z,72.90
2019-02-23T16:08:46.745Z,74.10
2019-02-23T16:11:15.932Z,74.90
2019-02-23T16:13:45.201Z,73.50
2019-02-23T16:16:14.400Z,73.00
2019-02-23T16:18:44.334Z,72.70
2019-02-23T16:21:13.861Z,72.50
2019-02-23T16:23:43.364Z,71.60
2019-02-23T16:26:12.493Z,72.80
2019-02-23T16:28:41.604Z,72.60
2019-02-23T16:31:10.876Z,70.30
2019-02-23T16:33:40.478Z,70.50
2019-02-23T16:36:09.600Z,69.00
2019-02-23T16:38:38.692Z,67.00
2019-02-23T16:41:07.848Z,66.70
2019-02-23T16:43:37.604Z,67.30
2019-02-23T16:46:06.732Z,67.00
2019-02-23T16:48:36.376Z,66.40
2019-02-23T16:53:39.803Z,66.40
2019-02-23T16:56:10.432Z,67.10
2019-02-23T16:58:40.113Z,67.30
2019-02-23T17:01:09.736Z,68.30
2019-02-23T17:03:39.159Z,68.90
2019-02-23T17:06:08.964Z,69.10
2019-02-23T17:08:38.399Z,69.20
2019-02-23T17:11:07.464Z,69.90
2019-02-23T17:13:36.680Z,70.50
2019-02-23T17:16:05.804Z,71.00
2019-02-23T17:18:35.073Z,72.00
2019-02-23T17:21:04.278Z,71.60
2019-02-23T17:23:33.595Z,72.70
2019-02-23T17:26:04.425Z,74.10
2019-02-23T17:28:33.830Z,73.70
2019-02-23T17:31:04.476Z,74.20
2019-02-23T17:33:33.674Z,74.30
2019-02-23T17:36:03.406Z,75.80
2019-02-23T17:38:32.788Z,76.20
2019-02-23T17:41:02.229Z,77.00
2019-02-23T17:43:31.754Z,76.20
2019-02-23T17:46:01.684Z,77.40
2019-02-23T17:51:01.861Z,77.60
2019-02-23T17:53:31.520Z,78.00
2019-02-23T17:56:02.542Z,78.60
2019-02-23T17:58:31.768Z,80.10
2019-02-23T18:01:01.258Z,80.70
2019-02-23T18:03:30.368Z,81.10
2019-02-23T18:05:59.748Z,83.50
2019-02-23T18:08:28.856Z,82.30
2019-02-23T18:10:58.200Z,83.70
2019-02-23T18:13:27.324Z,84.60
2019-02-23T18:15:57.232Z,85.10
2019-02-23T18:18:26.419Z,85.00
2019-02-23T18:20:55.708Z,86.20
2019-02-23T18:23:24.846Z,86.30
2019-02-23T18:25:54.411Z,86.70
2019-02-23T18:28:23.440Z,88.00
2019-02-23T18:30:52.516Z,88.50
2019-02-23T18:33:21.862Z,90.00
2019-02-23T18:35:51.000Z,90.10
2019-02-23T18:40:57.121Z,90.10
2019-02-23T18:43:26.188Z,90.50
2019-02-23T18:45:56.660Z,90.80
2019-02-23T18:48:25.728Z,91.30
2019-02-23T18:50:54.836Z,91.20
2019-02-23T18:53:23.956Z,91.60
2019-02-23T18:55:53.172Z,92.40
2019-02-23T18:58:27.492Z,92.80
2019-02-23T19:00:56.918Z,92.50
2019-02-23T19:03:27.992Z,92.80
2019-02-23T19:05:57.428Z,92.60
2019-02-23T19:08:30.288Z,92.50
2019-02-23T19:11:00.064Z,92.80
2019-02-23T19:13:29.355Z,92.50
2019-02-23T19:15:58.779Z,93.40
2019-02-23T19:18:28.583Z,93.20
2019-02-23T19:21:01.472Z,93.10
2019-02-23T19:23:30.768Z,93.10
2019-02-23T19:26:00.052Z,93.10
2019-02-23T19:28:29.113Z,93.20
2019-02-23T19:30:58.630Z,93.20
2019-02-23T19:33:27.688Z,93.00
2019-02-23T19:38:31.236Z,92.90
2019-02-23T19:41:01.280Z,93.90
2019-02-23T19:43:30.401Z,93.60
2019-02-23T19:45:59.684Z,93.50
2019-02-23T19:48:28.876Z,94.10
2019-02-23T19:51:03.260Z,94.10
2019-02-23T19:53:32.272Z,94.10
2019-02-23T19:56:01.293Z,94.30
2019-02-23T19:58:30.879Z,94.40
2019-02-23T20:00:59.952Z,94.30
2019-02-23T20:03:30.264Z,94.60
2019-02-23T20:05:59.321Z,94.80
2019-02-23T20:08:28.876Z,94.80
2019-02-23T20:10:58.266Z,95.20
2019-02-23T20:13:28.019Z,95.40
2019-02-23T20:15:57.155Z,95.40
2019-02-23T20:18:26.244Z,95.70
2019-02-23T20:20:55.876Z,95.90
2019-02-23T20:26:00.009Z,96.30
2019-02-23T20:28:29.504Z,96.70
2019-02-23T20:30:58.564Z,96.60
2019-02-23T20:33:27.894Z,97.40
2019-02-23T20:35:57.000Z,96.50
2019-02-23T20:38:26.165Z,96.60
2019-02-23T20:40:55.749Z,97.50
2019-02-23T20:43:44.212Z,97.30
2019-02-23T20:46:13.717Z,97.30
2019-02-23T20:48:43.936Z,97.50
2019-02-23T20:51:14.345Z,96.90
2019-02-23T20:53:45.356Z,97.40
2019-02-23T20:56:14.533Z,97.10
2019-02-23T20:58:43.705Z,97.20
2019-02-23T21:01:12.800Z,97.10
2019-02-23T21:03:42.271Z,97.40
2019-02-23T21:06:12.214Z,98.00
2019-02-23T21:08:41.284Z,98.00
2019-02-23T21:11:10.823Z,97.60
2019-02-23T21:13:40.289Z,97.40
2019-02-23T21:16:09.524Z,97.30
2019-02-23T21:18:38.572Z,97.50
2019-02-23T21:21:07.893Z,97.80
2019-02-23T21:23:36.955Z,98.10
2019-02-23T21:26:07.102Z,98.20
2019-02-23T21:28:36.184Z,99.20
2019-02-23T21:31:05.252Z,98.50
2019-02-23T21:33:34.338Z,98.10
2019-02-23T21:36:03.520Z,98.80
2019-02-23T21:38:32.544Z,98.50
2019-02-23T21:41:01.986Z,98.60
2019-02-23T21:43:31.191Z,98.60
2019-02-23T21:46:00.289Z,99.10
2019-02-23T21:48:29.512Z,99.10
2019-02-23T21:50:59.273Z,98.80
2019-02-23T21:53:28.868Z,98.90
2019-02-23T21:55:58.276Z,99.20
2019-02-23T21:58:28.408Z,99.90
2019-02-23T22:00:58.180Z,99.50
2019-02-23T22:03:28.300Z,99.70
2019-02-23T22:05:57.472Z,99.90
2019-02-23T22:08:27.287Z,99.90
2019-02-23T22:10:56.713Z,99.90
2019-02-23T22:13:25.849Z,99.90
2019-02-23T22:15:55.249Z,99.90
2019-02-23T22:18:24.572Z,99.90
2019-02-23T22:20:54.484Z,99.90
2019-02-23T22:23:24.485Z,99.90
2019-02-23T22:25:53.602Z,99.90
2019-02-23T22:28:22.821Z,99.90
2019-02-23T22:30:52.042Z,99.90
2019-02-23T22:35:57.269Z,99.90
2019-02-23T22:38:26.481Z,99.90
2019-02-23T22:40:55.620Z,99.90
2019-02-23T22:43:24.695Z,99.90
2019-02-23T22:45:57.770Z,99.90
2019-02-23T22:48:27.124Z,99.90
2019-02-23T22:50:56.552Z,99.90
2019-02-23T22:53:26.240Z,99.90
2019-02-23T22:55:55.418Z,99.90
2019-02-23T22:58:24.937Z,99.90
2019-02-23T23:00:55.473Z,99.90
2019-02-23T23:03:24.593Z,99.90
2019-02-23T23:05:53.960Z,99.90
2019-02-23T23:08:23.152Z,99.90
2019-02-23T23:10:52.192Z,99.90
2019-02-23T23:13:21.645Z,99.90
2019-02-23T23:15:51.377Z,99.90
2019-02-23T23:18:20.892Z,99.90
2019-02-23T23:20:50.305Z,99.90
2019-02-23T23:23:19.460Z,99.90
2019-02-23T23:25:48.564Z,99.90
2019-02-23T23:28:18.581Z,99.90
2019-02-23T23:30:47.670Z,99.90
2019-02-23T23:33:16.924Z,99.90
2019-02-23T23:35:46.354Z,99.90
2019-02-23T23:38:15.424Z,99.90
2019-02-23T23:40:44.898Z,99.90
2019-02-23T23:43:14.320Z,99.90
2019-02-23T23:45:44.904Z,99.90
2019-02-23T23:48:14.302Z,99.90
2019-02-23T23:50:43.682Z,99.90
2019-02-23T23:53:13.266Z,99.90
2019-02-23T23:55:42.905Z,99.90
2019-02-23T23:58:12.056Z,99.90
